sensor_id;sensor_type;location;lat;lon;timestamp;P1;durP1;ratioP1;P2;durP2;ratioP2
840;SDS011;406;48.566;13.450;2023-07-08T00:01:04;8.40;;;6.50;;
840;SDS011;406;48.566;13.450;2023-07-08T00:03:33;7.30;;;6.13;;
840;SDS011;406;48.566;13.450;2023-07-08T00:06:00;8.33;;;6.50;;
840;SDS011;406;48.566;13.450;2023-07-08T00:08:26;6.80;;;5.87;;
840;SDS011;406;48.566;13.450;2023-07-08T00:10:53;8.03;;;7.13;;
840;SDS011;406;48.566;13.450;2023-07-08T00:13:21;6.90;;;5.90;;
840;SDS011;406;48.566;13.450;2023-07-08T00:15:48;6.90;;;5.60;;
840;SDS011;406;48.566;13.450;2023-07-08T00:18:16;10.97;;;7.20;;
840;SDS011;406;48.566;13.450;2023-07-08T00:20:45;7.97;;;6.80;;
840;SDS011;406;48.566;13.450;2023-07-08T00:23:13;9.07;;;6.77;;
840;SDS011;406;48.566;13.450;2023-07-08T00:25:40;7.63;;;5.97;;
840;SDS011;406;48.566;13.450;2023-07-08T00:28:12;8.93;;;6.63;;
840;SDS011;406;48.566;13.450;2023-07-08T00:30:41;7.20;;;6.20;;
840;SDS011;406;48.566;13.450;2023-07-08T00:33:08;8.70;;;6.37;;
840;SDS011;406;48.566;13.450;2023-07-08T00:35:35;8.63;;;6.23;;
840;SDS011;406;48.566;13.450;2023-07-08T00:38:11;8.20;;;6.87;;
840;SDS011;406;48.566;13.450;2023-07-08T00:40:51;7.77;;;6.23;;
840;SDS011;406;48.566;13.450;2023-07-08T00:43:30;7.07;;;6.20;;
840;SDS011;406;48.566;13.450;2023-07-08T00:46:13;7.97;;;6.80;;
840;SDS011;406;48.566;13.450;2023-07-08T00:48:44;8.20;;;7.00;;
840;SDS011;406;48.566;13.450;2023-07-08T00:51:11;7.97;;;6.40;;
840;SDS011;406;48.566;13.450;2023-07-08T00:53:38;6.53;;;5.57;;
840;SDS011;406;48.566;13.450;2023-07-08T00:56:12;7.40;;;6.60;;
840;SDS011;406;48.566;13.450;2023-07-08T00:58:47;6.77;;;6.17;;
840;SDS011;406;48.566;13.450;2023-07-08T01:01:16;6.40;;;5.80;;
840;SDS011;406;48.566;13.450;2023-07-08T01:06:44;7.67;;;6.87;;
840;SDS011;406;48.566;13.450;2023-07-08T01:09:13;10.30;;;7.20;;
840;SDS011;406;48.566;13.450;2023-07-08T01:11:40;8.37;;;6.90;;
840;SDS011;406;48.566;13.450;2023-07-08T01:14:08;8.00;;;6.90;;
840;SDS011;406;48.566;13.450;2023-07-08T01:16:37;7.63;;;6.83;;
840;SDS011;406;48.566;13.450;2023-07-08T01:19:04;8.57;;;7.10;;
840;SDS011;406;48.566;13.450;2023-07-08T01:24:04;8.40;;;6.53;;
840;SDS011;406;48.566;13.450;2023-07-08T01:26:33;9.00;;;7.70;;
840;SDS011;406;48.566;13.450;2023-07-08T01:29:00;11.10;;;7.43;;
840;SDS011;406;48.566;13.450;2023-07-08T01:31:27;8.10;;;6.90;;
840;SDS011;406;48.566;13.450;2023-07-08T01:33:54;9.20;;;5.80;;
840;SDS011;406;48.566;13.450;2023-07-08T01:36:22;8.20;;;6.80;;
840;SDS011;406;48.566;13.450;2023-07-08T01:38:51;7.23;;;6.53;;
840;SDS011;406;48.566;13.450;2023-07-08T01:41:18;10.27;;;7.27;;
840;SDS011;406;48.566;13.450;2023-07-08T01:43:45;7.97;;;7.17;;
840;SDS011;406;48.566;13.450;2023-07-08T01:46:14;9.03;;;7.23;;
840;SDS011;406;48.566;13.450;2023-07-08T01:48:43;9.27;;;7.10;;
840;SDS011;406;48.566;13.450;2023-07-08T01:51:13;8.97;;;6.40;;
840;SDS011;406;48.566;13.450;2023-07-08T01:53:40;7.20;;;6.20;;
840;SDS011;406;48.566;13.450;2023-07-08T01:56:08;7.83;;;6.53;;
840;SDS011;406;48.566;13.450;2023-07-08T01:58:36;7.83;;;7.03;;
840;SDS011;406;48.566;13.450;2023-07-08T02:01:02;7.77;;;6.50;;
840;SDS011;406;48.566;13.450;2023-07-08T02:03:29;7.40;;;5.97;;
840;SDS011;406;48.566;13.450;2023-07-08T02:05:56;10.33;;;7.43;;
840;SDS011;406;48.566;13.450;2023-07-08T02:08:23;7.10;;;6.50;;
840;SDS011;406;48.566;13.450;2023-07-08T02:10:55;7.30;;;6.60;;
840;SDS011;406;48.566;13.450;2023-07-08T02:13:23;7.10;;;6.40;;
840;SDS011;406;48.566;13.450;2023-07-08T02:15:50;8.70;;;7.17;;
840;SDS011;406;48.566;13.450;2023-07-08T02:18:18;7.83;;;6.90;;
840;SDS011;406;48.566;13.450;2023-07-08T02:20:45;7.60;;;6.80;;
840;SDS011;406;48.566;13.450;2023-07-08T02:23:13;8.03;;;6.87;;
840;SDS011;406;48.566;13.450;2023-07-08T02:25:40;7.50;;;6.80;;
840;SDS011;406;48.566;13.450;2023-07-08T02:28:07;7.03;;;6.40;;
840;SDS011;406;48.566;13.450;2023-07-08T02:30:33;8.53;;;6.73;;
840;SDS011;406;48.566;13.450;2023-07-08T02:33:00;7.57;;;6.73;;
840;SDS011;406;48.566;13.450;2023-07-08T02:35:30;6.67;;;5.90;;
840;SDS011;406;48.566;13.450;2023-07-08T02:37:57;8.00;;;6.63;;
840;SDS011;406;48.566;13.450;2023-07-08T02:40:24;6.43;;;5.83;;
840;SDS011;406;48.566;13.450;2023-07-08T02:42:53;8.50;;;7.70;;
840;SDS011;406;48.566;13.450;2023-07-08T02:45:19;6.90;;;6.07;;
840;SDS011;406;48.566;13.450;2023-07-08T02:47:46;7.53;;;6.80;;
840;SDS011;406;48.566;13.450;2023-07-08T02:50:12;10.53;;;7.03;;
840;SDS011;406;48.566;13.450;2023-07-08T02:52:39;7.00;;;6.33;;
840;SDS011;406;48.566;13.450;2023-07-08T02:55:06;8.30;;;6.80;;
840;SDS011;406;48.566;13.450;2023-07-08T02:57:32;7.50;;;6.70;;
840;SDS011;406;48.566;13.450;2023-07-08T02:59:59;10.13;;;6.30;;
840;SDS011;406;48.566;13.450;2023-07-08T03:02:26;6.87;;;6.17;;
840;SDS011;406;48.566;13.450;2023-07-08T03:04:53;7.47;;;6.77;;
840;SDS011;406;48.566;13.450;2023-07-08T03:07:20;7.97;;;6.77;;
840;SDS011;406;48.566;13.450;2023-07-08T03:09:47;8.80;;;7.80;;
840;SDS011;406;48.566;13.450;2023-07-08T03:12:13;8.33;;;7.30;;
840;SDS011;406;48.566;13.450;2023-07-08T03:14:40;8.03;;;6.70;;
840;SDS011;406;48.566;13.450;2023-07-08T03:17:06;7.40;;;6.50;;
840;SDS011;406;48.566;13.450;2023-07-08T03:19:33;7.90;;;7.10;;
840;SDS011;406;48.566;13.450;2023-07-08T03:22:00;8.30;;;7.50;;
840;SDS011;406;48.566;13.450;2023-07-08T03:24:29;8.90;;;7.10;;
840;SDS011;406;48.566;13.450;2023-07-08T03:26:58;7.10;;;6.40;;
840;SDS011;406;48.566;13.450;2023-07-08T03:29:26;7.70;;;6.97;;
840;SDS011;406;48.566;13.450;2023-07-08T03:31:53;7.83;;;6.33;;
840;SDS011;406;48.566;13.450;2023-07-08T03:34:19;8.43;;;6.70;;
840;SDS011;406;48.566;13.450;2023-07-08T03:36:47;10.37;;;7.27;;
840;SDS011;406;48.566;13.450;2023-07-08T03:39:18;7.87;;;6.70;;
840;SDS011;406;48.566;13.450;2023-07-08T03:41:49;8.27;;;7.40;;
840;SDS011;406;48.566;13.450;2023-07-08T03:44:16;7.37;;;6.60;;
840;SDS011;406;48.566;13.450;2023-07-08T03:46:43;8.13;;;7.30;;
840;SDS011;406;48.566;13.450;2023-07-08T03:49:14;7.33;;;6.63;;
840;SDS011;406;48.566;13.450;2023-07-08T03:51:40;8.03;;;7.20;;
840;SDS011;406;48.566;13.450;2023-07-08T03:54:09;7.70;;;7.00;;
840;SDS011;406;48.566;13.450;2023-07-08T03:56:38;9.50;;;7.43;;
840;SDS011;406;48.566;13.450;2023-07-08T03:59:07;7.77;;;6.70;;
840;SDS011;406;48.566;13.450;2023-07-08T04:01:34;8.47;;;7.37;;
840;SDS011;406;48.566;13.450;2023-07-08T04:04:01;9.63;;;7.57;;
840;SDS011;406;48.566;13.450;2023-07-08T04:06:28;7.97;;;7.20;;
840;SDS011;406;48.566;13.450;2023-07-08T04:08:55;8.83;;;7.93;;
840;SDS011;406;48.566;13.450;2023-07-08T04:11:22;9.10;;;8.20;;
840;SDS011;406;48.566;13.450;2023-07-08T04:13:49;9.33;;;7.47;;
840;SDS011;406;48.566;13.450;2023-07-08T04:16:20;9.67;;;7.63;;
840;SDS011;406;48.566;13.450;2023-07-08T04:18:48;8.17;;;6.47;;
840;SDS011;406;48.566;13.450;2023-07-08T04:21:17;8.07;;;7.27;;
840;SDS011;406;48.566;13.450;2023-07-08T04:23:47;9.07;;;8.17;;
840;SDS011;406;48.566;13.450;2023-07-08T04:26:13;9.97;;;8.33;;
840;SDS011;406;48.566;13.450;2023-07-08T04:28:40;8.30;;;7.50;;
840;SDS011;406;48.566;13.450;2023-07-08T04:31:07;8.60;;;7.70;;
840;SDS011;406;48.566;13.450;2023-07-08T04:33:34;9.73;;;8.73;;
840;SDS011;406;48.566;13.450;2023-07-08T04:36:01;9.10;;;8.10;;
840;SDS011;406;48.566;13.450;2023-07-08T04:38:27;9.70;;;7.50;;
840;SDS011;406;48.566;13.450;2023-07-08T04:40:54;10.17;;;9.10;;
840;SDS011;406;48.566;13.450;2023-07-08T04:43:21;9.00;;;7.33;;
840;SDS011;406;48.566;13.450;2023-07-08T04:45:48;10.57;;;8.50;;
840;SDS011;406;48.566;13.450;2023-07-08T04:48:17;9.40;;;7.77;;
840;SDS011;406;48.566;13.450;2023-07-08T04:50:45;9.17;;;8.17;;
840;SDS011;406;48.566;13.450;2023-07-08T04:53:13;9.17;;;7.50;;
840;SDS011;406;48.566;13.450;2023-07-08T04:55:44;9.07;;;8.17;;
840;SDS011;406;48.566;13.450;2023-07-08T04:58:12;8.70;;;7.50;;
840;SDS011;406;48.566;13.450;2023-07-08T05:00:39;10.77;;;9.40;;
840;SDS011;406;48.566;13.450;2023-07-08T05:03:06;8.03;;;7.23;;
840;SDS011;406;48.566;13.450;2023-07-08T05:05:32;10.13;;;8.80;;
840;SDS011;406;48.566;13.450;2023-07-08T05:07:59;10.13;;;8.53;;
840;SDS011;406;48.566;13.450;2023-07-08T05:10:26;8.93;;;8.07;;
840;SDS011;406;48.566;13.450;2023-07-08T05:12:52;9.57;;;7.23;;
840;SDS011;406;48.566;13.450;2023-07-08T05:15:19;8.57;;;7.33;;
840;SDS011;406;48.566;13.450;2023-07-08T05:17:45;7.87;;;7.00;;
840;SDS011;406;48.566;13.450;2023-07-08T05:20:13;8.00;;;7.20;;
840;SDS011;406;48.566;13.450;2023-07-08T05:22:40;11.07;;;7.50;;
840;SDS011;406;48.566;13.450;2023-07-08T05:25:08;10.33;;;7.40;;
840;SDS011;406;48.566;13.450;2023-07-08T05:27:35;8.83;;;7.93;;
840;SDS011;406;48.566;13.450;2023-07-08T05:30:03;10.37;;;7.20;;
840;SDS011;406;48.566;13.450;2023-07-08T05:32:30;8.73;;;7.60;;
840;SDS011;406;48.566;13.450;2023-07-08T05:34:57;8.67;;;7.60;;
840;SDS011;406;48.566;13.450;2023-07-08T05:37:24;8.97;;;8.07;;
840;SDS011;406;48.566;13.450;2023-07-08T05:39:54;8.63;;;7.30;;
840;SDS011;406;48.566;13.450;2023-07-08T05:42:21;6.80;;;6.10;;
840;SDS011;406;48.566;13.450;2023-07-08T05:44:48;9.37;;;7.53;;
840;SDS011;406;48.566;13.450;2023-07-08T05:47:15;8.03;;;7.23;;
840;SDS011;406;48.566;13.450;2023-07-08T05:49:41;8.40;;;6.70;;
840;SDS011;406;48.566;13.450;2023-07-08T05:52:08;7.53;;;6.83;;
840;SDS011;406;48.566;13.450;2023-07-08T05:54:37;8.10;;;7.23;;
840;SDS011;406;48.566;13.450;2023-07-08T05:57:08;8.37;;;7.57;;
840;SDS011;406;48.566;13.450;2023-07-08T05:59:36;8.13;;;7.00;;
840;SDS011;406;48.566;13.450;2023-07-08T06:02:05;7.43;;;6.73;;
840;SDS011;406;48.566;13.450;2023-07-08T06:04:32;8.37;;;7.10;;
840;SDS011;406;48.566;13.450;2023-07-08T06:06:58;6.97;;;6.20;;
840;SDS011;406;48.566;13.450;2023-07-08T06:09:25;7.90;;;6.83;;
840;SDS011;406;48.566;13.450;2023-07-08T06:11:51;7.20;;;6.50;;
840;SDS011;406;48.566;13.450;2023-07-08T06:14:18;8.80;;;6.07;;
840;SDS011;406;48.566;13.450;2023-07-08T06:16:44;7.47;;;6.50;;
840;SDS011;406;48.566;13.450;2023-07-08T06:19:12;8.47;;;7.13;;
840;SDS011;406;48.566;13.450;2023-07-08T06:21:41;6.90;;;6.20;;
840;SDS011;406;48.566;13.450;2023-07-08T06:24:08;7.30;;;6.27;;
840;SDS011;406;48.566;13.450;2023-07-08T06:26:34;7.40;;;6.60;;
840;SDS011;406;48.566;13.450;2023-07-08T06:29:01;7.97;;;7.20;;
840;SDS011;406;48.566;13.450;2023-07-08T06:31:28;6.80;;;6.10;;
840;SDS011;406;48.566;13.450;2023-07-08T06:33:55;6.93;;;6.23;;
840;SDS011;406;48.566;13.450;2023-07-08T06:36:22;6.70;;;5.67;;
840;SDS011;406;48.566;13.450;2023-07-08T06:38:49;11.03;;;6.50;;
840;SDS011;406;48.566;13.450;2023-07-08T06:41:15;6.13;;;5.43;;
840;SDS011;406;48.566;13.450;2023-07-08T06:43:42;7.73;;;6.07;;
840;SDS011;406;48.566;13.450;2023-07-08T06:46:20;6.10;;;5.50;;
840;SDS011;406;48.566;13.450;2023-07-08T06:48:46;8.73;;;5.27;;
840;SDS011;406;48.566;13.450;2023-07-08T06:51:13;5.77;;;5.00;;
840;SDS011;406;48.566;13.450;2023-07-08T06:53:39;7.03;;;5.20;;
840;SDS011;406;48.566;13.450;2023-07-08T06:56:06;6.00;;;4.87;;
840;SDS011;406;48.566;13.450;2023-07-08T06:58:32;7.47;;;6.07;;
840;SDS011;406;48.566;13.450;2023-07-08T07:00:59;6.60;;;4.80;;
840;SDS011;406;48.566;13.450;2023-07-08T07:03:26;5.23;;;4.60;;
840;SDS011;406;48.566;13.450;2023-07-08T07:05:52;6.10;;;4.53;;
840;SDS011;406;48.566;13.450;2023-07-08T07:08:19;6.27;;;5.60;;
840;SDS011;406;48.566;13.450;2023-07-08T07:10:45;6.17;;;5.57;;
840;SDS011;406;48.566;13.450;2023-07-08T07:13:12;5.70;;;4.87;;
840;SDS011;406;48.566;13.450;2023-07-08T07:15:39;6.50;;;5.30;;
840;SDS011;406;48.566;13.450;2023-07-08T07:18:05;5.60;;;5.10;;
840;SDS011;406;48.566;13.450;2023-07-08T07:20:33;7.10;;;5.10;;
840;SDS011;406;48.566;13.450;2023-07-08T07:23:01;6.00;;;4.43;;
840;SDS011;406;48.566;13.450;2023-07-08T07:25:28;5.00;;;4.60;;
840;SDS011;406;48.566;13.450;2023-07-08T07:27:54;8.33;;;7.40;;
840;SDS011;406;48.566;13.450;2023-07-08T07:30:21;9.20;;;4.80;;
840;SDS011;406;48.566;13.450;2023-07-08T07:32:47;5.23;;;4.73;;
840;SDS011;406;48.566;13.450;2023-07-08T07:35:14;5.43;;;4.60;;
840;SDS011;406;48.566;13.450;2023-07-08T07:37:42;4.80;;;4.30;;
840;SDS011;406;48.566;13.450;2023-07-08T07:40:12;5.47;;;4.23;;
840;SDS011;406;48.566;13.450;2023-07-08T07:42:42;5.80;;;4.77;;
840;SDS011;406;48.566;13.450;2023-07-08T07:45:09;5.00;;;4.50;;
840;SDS011;406;48.566;13.450;2023-07-08T07:47:36;5.80;;;4.17;;
840;SDS011;406;48.566;13.450;2023-07-08T07:50:06;7.83;;;4.87;;
840;SDS011;406;48.566;13.450;2023-07-08T07:52:33;6.37;;;4.73;;
840;SDS011;406;48.566;13.450;2023-07-08T07:55:00;7.00;;;4.30;;
840;SDS011;406;48.566;13.450;2023-07-08T07:57:27;6.10;;;5.07;;
840;SDS011;406;48.566;13.450;2023-07-08T07:59:54;5.80;;;4.57;;
840;SDS011;406;48.566;13.450;2023-07-08T08:02:20;4.63;;;4.13;;
840;SDS011;406;48.566;13.450;2023-07-08T08:04:47;5.00;;;4.30;;
840;SDS011;406;48.566;13.450;2023-07-08T08:07:13;5.50;;;4.60;;
840;SDS011;406;48.566;13.450;2023-07-08T08:09:40;6.00;;;4.30;;
840;SDS011;406;48.566;13.450;2023-07-08T08:12:08;5.40;;;4.80;;
840;SDS011;406;48.566;13.450;2023-07-08T08:14:36;5.03;;;4.53;;
840;SDS011;406;48.566;13.450;2023-07-08T08:17:03;5.53;;;4.33;;
840;SDS011;406;48.566;13.450;2023-07-08T08:19:30;5.20;;;3.67;;
840;SDS011;406;48.566;13.450;2023-07-08T08:21:58;6.37;;;4.10;;
840;SDS011;406;48.566;13.450;2023-07-08T08:24:24;4.33;;;3.90;;
840;SDS011;406;48.566;13.450;2023-07-08T08:26:53;4.60;;;4.00;;
840;SDS011;406;48.566;13.450;2023-07-08T08:29:20;5.53;;;4.83;;
840;SDS011;406;48.566;13.450;2023-07-08T08:31:46;5.63;;;4.90;;
840;SDS011;406;48.566;13.450;2023-07-08T08:34:13;7.83;;;5.43;;
840;SDS011;406;48.566;13.450;2023-07-08T08:36:39;4.30;;;3.83;;
840;SDS011;406;48.566;13.450;2023-07-08T08:39:06;5.60;;;4.60;;
840;SDS011;406;48.566;13.450;2023-07-08T08:41:33;5.60;;;4.90;;
840;SDS011;406;48.566;13.450;2023-07-08T08:44:01;7.60;;;4.43;;
840;SDS011;406;48.566;13.450;2023-07-08T08:46:34;5.80;;;4.87;;
840;SDS011;406;48.566;13.450;2023-07-08T08:51:52;6.50;;;4.60;;
840;SDS011;406;48.566;13.450;2023-07-08T08:54:19;4.93;;;3.83;;
840;SDS011;406;48.566;13.450;2023-07-08T08:56:48;5.20;;;4.70;;
840;SDS011;406;48.566;13.450;2023-07-08T09:02:17;4.37;;;3.97;;
840;SDS011;406;48.566;13.450;2023-07-08T09:04:45;5.10;;;4.10;;
840;SDS011;406;48.566;13.450;2023-07-08T09:07:16;5.80;;;4.80;;
840;SDS011;406;48.566;13.450;2023-07-08T09:09:52;5.70;;;5.10;;
840;SDS011;406;48.566;13.450;2023-07-08T09:12:26;4.77;;;4.10;;
840;SDS011;406;48.566;13.450;2023-07-08T09:14:53;4.23;;;3.47;;
840;SDS011;406;48.566;13.450;2023-07-08T09:20:03;5.03;;;4.53;;
840;SDS011;406;48.566;13.450;2023-07-08T09:27:58;6.57;;;4.97;;
840;SDS011;406;48.566;13.450;2023-07-08T09:30:24;5.00;;;4.10;;
840;SDS011;406;48.566;13.450;2023-07-08T09:32:52;5.10;;;3.93;;
840;SDS011;406;48.566;13.450;2023-07-08T09:35:23;5.77;;;4.20;;
840;SDS011;406;48.566;13.450;2023-07-08T09:37:54;8.03;;;4.73;;
840;SDS011;406;48.566;13.450;2023-07-08T09:42:55;3.87;;;3.47;;
840;SDS011;406;48.566;13.450;2023-07-08T09:45:27;4.33;;;3.93;;
840;SDS011;406;48.566;13.450;2023-07-08T09:47:55;5.40;;;3.97;;
840;SDS011;406;48.566;13.450;2023-07-08T09:50:29;5.07;;;3.37;;
840;SDS011;406;48.566;13.450;2023-07-08T09:52:58;6.17;;;3.93;;
840;SDS011;406;48.566;13.450;2023-07-08T09:55:27;3.80;;;3.40;;
840;SDS011;406;48.566;13.450;2023-07-08T09:57:55;4.53;;;4.10;;
840;SDS011;406;48.566;13.450;2023-07-08T10:00:30;5.30;;;4.10;;
840;SDS011;406;48.566;13.450;2023-07-08T10:03:04;6.10;;;4.30;;
840;SDS011;406;48.566;13.450;2023-07-08T10:05:38;5.17;;;4.27;;
840;SDS011;406;48.566;13.450;2023-07-08T10:08:40;6.07;;;4.17;;
840;SDS011;406;48.566;13.450;2023-07-08T10:11:20;5.00;;;4.10;;
840;SDS011;406;48.566;13.450;2023-07-08T10:13:56;4.10;;;3.67;;
840;SDS011;406;48.566;13.450;2023-07-08T10:16:39;5.90;;;4.60;;
840;SDS011;406;48.566;13.450;2023-07-08T10:19:12;6.17;;;4.40;;
840;SDS011;406;48.566;13.450;2023-07-08T10:24:50;5.50;;;4.60;;
840;SDS011;406;48.566;13.450;2023-07-08T10:27:24;5.83;;;4.10;;
840;SDS011;406;48.566;13.450;2023-07-08T10:30:11;5.17;;;4.53;;
840;SDS011;406;48.566;13.450;2023-07-08T10:36:07;4.87;;;4.20;;
840;SDS011;406;48.566;13.450;2023-07-08T10:42:02;4.23;;;3.83;;
840;SDS011;406;48.566;13.450;2023-07-08T11:04:00;5.77;;;4.30;;
840;SDS011;406;48.566;13.450;2023-07-08T11:06:50;4.47;;;3.90;;
840;SDS011;406;48.566;13.450;2023-07-08T11:09:34;5.47;;;4.47;;
840;SDS011;406;48.566;13.450;2023-07-08T11:12:14;4.57;;;3.93;;
840;SDS011;406;48.566;13.450;2023-07-08T11:17:59;4.20;;;3.80;;
840;SDS011;406;48.566;13.450;2023-07-08T11:20:39;9.17;;;4.90;;
840;SDS011;406;48.566;13.450;2023-07-08T11:23:22;5.93;;;3.83;;
840;SDS011;406;48.566;13.450;2023-07-08T11:25:54;7.33;;;4.47;;
840;SDS011;406;48.566;13.450;2023-07-08T11:28:31;4.70;;;4.20;;
840;SDS011;406;48.566;13.450;2023-07-08T11:30:58;4.53;;;3.90;;
840;SDS011;406;48.566;13.450;2023-07-08T11:33:28;4.53;;;4.10;;
840;SDS011;406;48.566;13.450;2023-07-08T11:35:55;5.23;;;4.07;;
840;SDS011;406;48.566;13.450;2023-07-08T11:38:24;6.20;;;3.93;;
840;SDS011;406;48.566;13.450;2023-07-08T11:41:00;5.70;;;3.43;;
840;SDS011;406;48.566;13.450;2023-07-08T11:43:34;3.93;;;3.30;;
840;SDS011;406;48.566;13.450;2023-07-08T11:46:11;5.50;;;4.43;;
840;SDS011;406;48.566;13.450;2023-07-08T11:48:43;4.40;;;3.70;;
840;SDS011;406;48.566;13.450;2023-07-08T11:51:26;4.57;;;4.17;;
840;SDS011;406;48.566;13.450;2023-07-08T11:53:59;3.90;;;3.60;;
840;SDS011;406;48.566;13.450;2023-07-08T11:56:26;6.00;;;3.80;;
840;SDS011;406;48.566;13.450;2023-07-08T11:58:57;4.87;;;4.30;;
840;SDS011;406;48.566;13.450;2023-07-08T12:01:38;5.87;;;4.40;;
840;SDS011;406;48.566;13.450;2023-07-08T12:09:22;5.67;;;4.37;;
840;SDS011;406;48.566;13.450;2023-07-08T12:12:00;5.30;;;4.60;;
840;SDS011;406;48.566;13.450;2023-07-08T12:14:28;5.33;;;3.90;;
840;SDS011;406;48.566;13.450;2023-07-08T12:16:55;4.10;;;3.70;;
840;SDS011;406;48.566;13.450;2023-07-08T12:19:22;5.43;;;4.00;;
840;SDS011;406;48.566;13.450;2023-07-08T12:21:55;6.20;;;3.70;;
840;SDS011;406;48.566;13.450;2023-07-08T12:24:22;5.00;;;4.00;;
840;SDS011;406;48.566;13.450;2023-07-08T12:26:52;3.90;;;3.50;;
840;SDS011;406;48.566;13.450;2023-07-08T12:29:19;3.50;;;3.20;;
840;SDS011;406;48.566;13.450;2023-07-08T12:31:46;5.80;;;4.43;;
840;SDS011;406;48.566;13.450;2023-07-08T12:34:13;10.27;;;5.07;;
840;SDS011;406;48.566;13.450;2023-07-08T12:36:41;5.13;;;4.60;;
840;SDS011;406;48.566;13.450;2023-07-08T12:39:10;5.77;;;5.17;;
840;SDS011;406;48.566;13.450;2023-07-08T12:41:41;5.00;;;4.20;;
840;SDS011;406;48.566;13.450;2023-07-08T12:44:42;4.47;;;4.07;;
840;SDS011;406;48.566;13.450;2023-07-08T12:47:04;4.53;;;4.13;;
840;SDS011;406;48.566;13.450;2023-07-08T12:49:31;4.77;;;4.27;;
840;SDS011;406;48.566;13.450;2023-07-08T12:51:58;5.00;;;4.03;;
840;SDS011;406;48.566;13.450;2023-07-08T12:54:24;5.30;;;4.40;;
840;SDS011;406;48.566;13.450;2023-07-08T12:56:52;5.50;;;4.03;;
840;SDS011;406;48.566;13.450;2023-07-08T12:59:20;5.20;;;4.47;;
840;SDS011;406;48.566;13.450;2023-07-08T13:01:48;4.00;;;3.70;;
840;SDS011;406;48.566;13.450;2023-07-08T13:04:16;4.17;;;3.77;;
840;SDS011;406;48.566;13.450;2023-07-08T13:06:43;6.60;;;4.93;;
840;SDS011;406;48.566;13.450;2023-07-08T13:12:04;4.10;;;3.60;;
840;SDS011;406;48.566;13.450;2023-07-08T13:14:38;6.10;;;4.87;;
840;SDS011;406;48.566;13.450;2023-07-08T13:17:11;5.27;;;4.53;;
840;SDS011;406;48.566;13.450;2023-07-08T13:19:39;4.60;;;3.97;;
840;SDS011;406;48.566;13.450;2023-07-08T13:22:08;5.73;;;4.37;;
840;SDS011;406;48.566;13.450;2023-07-08T13:24:37;4.37;;;3.83;;
840;SDS011;406;48.566;13.450;2023-07-08T13:27:06;4.57;;;4.17;;
840;SDS011;406;48.566;13.450;2023-07-08T13:29:43;4.60;;;4.20;;
840;SDS011;406;48.566;13.450;2023-07-08T13:32:09;4.73;;;4.33;;
840;SDS011;406;48.566;13.450;2023-07-08T13:34:36;6.03;;;5.43;;
840;SDS011;406;48.566;13.450;2023-07-08T13:37:03;4.53;;;3.57;;
840;SDS011;406;48.566;13.450;2023-07-08T13:39:31;5.27;;;3.77;;
840;SDS011;406;48.566;13.450;2023-07-08T13:41:59;4.30;;;3.90;;
840;SDS011;406;48.566;13.450;2023-07-08T13:44:26;5.50;;;4.40;;
840;SDS011;406;48.566;13.450;2023-07-08T13:46:54;5.20;;;4.70;;
840;SDS011;406;48.566;13.450;2023-07-08T13:49:32;4.47;;;4.00;;
840;SDS011;406;48.566;13.450;2023-07-08T13:54:34;6.60;;;5.23;;
840;SDS011;406;48.566;13.450;2023-07-08T13:57:08;5.10;;;4.60;;
840;SDS011;406;48.566;13.450;2023-07-08T13:59:36;5.20;;;4.70;;
840;SDS011;406;48.566;13.450;2023-07-08T14:02:06;5.73;;;4.37;;
840;SDS011;406;48.566;13.450;2023-07-08T14:04:41;4.87;;;4.27;;
840;SDS011;406;48.566;13.450;2023-07-08T14:07:11;5.13;;;4.40;;
840;SDS011;406;48.566;13.450;2023-07-08T14:09:42;5.37;;;4.87;;
840;SDS011;406;48.566;13.450;2023-07-08T14:12:08;5.50;;;4.27;;
840;SDS011;406;48.566;13.450;2023-07-08T14:14:35;8.53;;;4.60;;
840;SDS011;406;48.566;13.450;2023-07-08T14:17:01;6.47;;;4.37;;
840;SDS011;406;48.566;13.450;2023-07-08T14:19:29;6.23;;;4.93;;
840;SDS011;406;48.566;13.450;2023-07-08T14:21:58;4.53;;;3.97;;
840;SDS011;406;48.566;13.450;2023-07-08T14:24:26;4.43;;;3.87;;
840;SDS011;406;48.566;13.450;2023-07-08T14:26:53;4.23;;;3.73;;
840;SDS011;406;48.566;13.450;2023-07-08T14:29:20;6.17;;;3.80;;
840;SDS011;406;48.566;13.450;2023-07-08T14:31:46;4.40;;;3.93;;
840;SDS011;406;48.566;13.450;2023-07-08T14:34:25;7.30;;;4.40;;
840;SDS011;406;48.566;13.450;2023-07-08T14:36:52;5.43;;;4.00;;
840;SDS011;406;48.566;13.450;2023-07-08T14:39:19;5.63;;;4.57;;
840;SDS011;406;48.566;13.450;2023-07-08T14:41:46;4.67;;;4.13;;
840;SDS011;406;48.566;13.450;2023-07-08T14:46:48;4.67;;;3.93;;
840;SDS011;406;48.566;13.450;2023-07-08T14:49:19;5.70;;;4.13;;
840;SDS011;406;48.566;13.450;2023-07-08T14:51:47;4.93;;;4.43;;
840;SDS011;406;48.566;13.450;2023-07-08T14:54:14;4.67;;;4.27;;
840;SDS011;406;48.566;13.450;2023-07-08T14:56:41;4.77;;;3.80;;
840;SDS011;406;48.566;13.450;2023-07-08T14:59:11;4.23;;;3.83;;
840;SDS011;406;48.566;13.450;2023-07-08T15:01:40;5.33;;;4.00;;
840;SDS011;406;48.566;13.450;2023-07-08T15:04:09;4.10;;;3.43;;
840;SDS011;406;48.566;13.450;2023-07-08T15:06:37;4.27;;;3.87;;
840;SDS011;406;48.566;13.450;2023-07-08T15:09:04;5.07;;;4.10;;
840;SDS011;406;48.566;13.450;2023-07-08T15:11:31;4.30;;;3.90;;
840;SDS011;406;48.566;13.450;2023-07-08T15:13:58;5.20;;;3.83;;
840;SDS011;406;48.566;13.450;2023-07-08T15:16:26;5.00;;;3.90;;
840;SDS011;406;48.566;13.450;2023-07-08T15:18:52;7.10;;;4.23;;
840;SDS011;406;48.566;13.450;2023-07-08T15:21:19;4.80;;;3.90;;
840;SDS011;406;48.566;13.450;2023-07-08T15:23:46;4.87;;;3.57;;
840;SDS011;406;48.566;13.450;2023-07-08T15:26:12;6.57;;;4.73;;
840;SDS011;406;48.566;13.450;2023-07-08T15:28:46;4.80;;;3.60;;
840;SDS011;406;48.566;13.450;2023-07-08T15:31:15;4.80;;;4.27;;
840;SDS011;406;48.566;13.450;2023-07-08T15:33:43;6.67;;;4.23;;
840;SDS011;406;48.566;13.450;2023-07-08T15:36:10;4.90;;;4.50;;
840;SDS011;406;48.566;13.450;2023-07-08T15:38:41;8.77;;;4.30;;
840;SDS011;406;48.566;13.450;2023-07-08T15:41:21;5.10;;;4.00;;
840;SDS011;406;48.566;13.450;2023-07-08T15:43:48;4.73;;;4.23;;
840;SDS011;406;48.566;13.450;2023-07-08T15:46:16;6.00;;;4.80;;
840;SDS011;406;48.566;13.450;2023-07-08T15:48:43;3.80;;;3.37;;
840;SDS011;406;48.566;13.450;2023-07-08T15:51:13;5.20;;;4.60;;
840;SDS011;406;48.566;13.450;2023-07-08T15:53:40;5.70;;;3.60;;
840;SDS011;406;48.566;13.450;2023-07-08T15:56:09;5.23;;;3.47;;
840;SDS011;406;48.566;13.450;2023-07-08T15:58:38;4.10;;;3.70;;
840;SDS011;406;48.566;13.450;2023-07-08T16:01:04;3.97;;;3.13;;
840;SDS011;406;48.566;13.450;2023-07-08T16:03:32;5.37;;;3.30;;
840;SDS011;406;48.566;13.450;2023-07-08T16:06:01;8.00;;;3.23;;
840;SDS011;406;48.566;13.450;2023-07-08T16:08:28;4.60;;;4.17;;
840;SDS011;406;48.566;13.450;2023-07-08T16:10:58;5.27;;;3.33;;
840;SDS011;406;48.566;13.450;2023-07-08T16:13:28;4.70;;;4.20;;
840;SDS011;406;48.566;13.450;2023-07-08T16:15:56;4.37;;;3.97;;
840;SDS011;406;48.566;13.450;2023-07-08T16:18:23;4.57;;;4.20;;
840;SDS011;406;48.566;13.450;2023-07-08T16:20:51;4.10;;;3.63;;
840;SDS011;406;48.566;13.450;2023-07-08T16:23:18;5.77;;;4.20;;
840;SDS011;406;48.566;13.450;2023-07-08T16:25:45;10.83;;;4.10;;
840;SDS011;406;48.566;13.450;2023-07-08T16:31:10;7.20;;;4.17;;
840;SDS011;406;48.566;13.450;2023-07-08T16:33:40;5.70;;;3.87;;
840;SDS011;406;48.566;13.450;2023-07-08T16:36:15;5.00;;;4.50;;
840;SDS011;406;48.566;13.450;2023-07-08T16:38:44;4.97;;;4.03;;
840;SDS011;406;48.566;13.450;2023-07-08T16:41:14;7.67;;;3.30;;
840;SDS011;406;48.566;13.450;2023-07-08T16:43:42;4.53;;;3.70;;
840;SDS011;406;48.566;13.450;2023-07-08T16:46:12;3.93;;;3.57;;
840;SDS011;406;48.566;13.450;2023-07-08T16:48:39;5.73;;;4.13;;
840;SDS011;406;48.566;13.450;2023-07-08T16:53:43;7.50;;;4.90;;